createdAt,value
2022-10-09T00:01:31.130Z,1.13
2022-10-09T00:04:00.513Z,2.80
2022-10-09T00:06:32.359Z,1.70
2022-10-09T00:09:01.838Z,2.57
2022-10-09T00:11:33.452Z,1.40
2022-10-09T00:14:02.374Z,2.13
2022-10-09T00:16:30.753Z,2.00
2022-10-09T00:18:59.459Z,1.00
2022-10-09T00:21:29.933Z,2.40
2022-10-09T00:24:02.256Z,1.43
2022-10-09T00:26:32.591Z,2.83
2022-10-09T00:29:01.261Z,1.10
2022-10-09T00:31:30.033Z,1.10
2022-10-09T00:33:58.410Z,2.03
2022-10-09T00:36:28.114Z,1.70
2022-10-09T00:38:57.115Z,1.00
2022-10-09T00:41:28.781Z,1.37
2022-10-09T00:44:01.013Z,1.70
2022-10-09T00:46:35.480Z,2.10
2022-10-09T00:49:13.161Z,0.87
2022-10-09T00:51:43.648Z,0.93
2022-10-09T00:54:16.013Z,1.23
2022-10-09T00:56:44.433Z,0.93
2022-10-09T00:59:14.526Z,1.40
2022-10-09T01:01:43.345Z,1.13
2022-10-09T01:04:11.778Z,0.63
2022-10-09T01:06:59.201Z,0.93
2022-10-09T01:09:39.904Z,1.30
2022-10-09T01:12:17.992Z,1.30
2022-10-09T01:15:00.560Z,0.63
2022-10-09T01:17:34.814Z,1.30
2022-10-09T01:20:26.167Z,1.20
2022-10-09T01:23:19.702Z,1.27
2022-10-09T01:26:00.879Z,0.93
2022-10-09T01:28:31.630Z,1.17
2022-10-09T01:31:02.542Z,0.80
2022-10-09T01:33:32.892Z,0.97
2022-10-09T01:36:02.521Z,0.97
2022-10-09T01:38:31.679Z,0.90
2022-10-09T01:41:00.398Z,1.10
2022-10-09T01:43:29.992Z,0.80
2022-10-09T01:46:24.683Z,0.90
2022-10-09T01:49:15.414Z,0.70
2022-10-09T01:51:53.088Z,1.13
2022-10-09T01:54:28.713Z,0.70
2022-10-09T01:56:59.454Z,1.47
2022-10-09T01:59:30.247Z,0.47
2022-10-09T02:02:00.986Z,0.63
2022-10-09T02:04:30.937Z,0.57
2022-10-09T02:06:59.613Z,0.90
2022-10-09T02:09:28.656Z,0.77
2022-10-09T02:12:04.223Z,0.50
2022-10-09T02:14:34.965Z,0.60
2022-10-09T02:17:08.521Z,1.03
2022-10-09T02:19:44.339Z,1.73
2022-10-09T02:22:16.889Z,1.67
2022-10-09T02:24:46.225Z,1.33
2022-10-09T02:27:15.825Z,1.30
2022-10-09T02:29:47.469Z,1.07
2022-10-09T02:32:16.038Z,1.03
2022-10-09T02:34:44.505Z,0.90
2022-10-09T02:37:12.893Z,0.90
2022-10-09T02:39:42.018Z,1.40
2022-10-09T02:42:10.186Z,1.57
2022-10-09T02:44:38.369Z,2.70
2022-10-09T02:47:08.044Z,1.27
2022-10-09T02:49:36.246Z,1.77
2022-10-09T02:52:04.511Z,1.00
2022-10-09T02:54:32.669Z,1.43
2022-10-09T02:57:00.845Z,1.37
2022-10-09T02:59:29.013Z,0.93
2022-10-09T03:01:57.272Z,0.57
2022-10-09T03:04:26.916Z,0.77
2022-10-09T03:06:55.069Z,0.73
2022-10-09T03:09:23.813Z,0.80
2022-10-09T03:11:52.048Z,0.50
2022-10-09T03:14:20.236Z,0.70
2022-10-09T03:16:48.412Z,0.60
2022-10-09T03:19:16.915Z,0.50
2022-10-09T03:21:46.524Z,0.50
2022-10-09T03:24:14.891Z,0.30
2022-10-09T03:26:43.004Z,0.87
2022-10-09T03:29:11.143Z,0.67
2022-10-09T03:31:51.831Z,0.90
2022-10-09T03:34:21.295Z,0.60
2022-10-09T03:36:51.195Z,0.57
2022-10-09T03:39:19.418Z,1.00
2022-10-09T03:41:47.611Z,0.50
2022-10-09T03:44:16.032Z,0.63
2022-10-09T03:46:44.286Z,1.50
2022-10-09T03:49:12.493Z,1.10
2022-10-09T03:51:40.718Z,1.37
2022-10-09T03:54:10.701Z,1.40
2022-10-09T03:56:38.967Z,1.13
2022-10-09T03:59:09.469Z,2.60
2022-10-09T04:01:38.257Z,2.27
2022-10-09T04:04:06.816Z,1.80
2022-10-09T04:06:35.018Z,1.67
2022-10-09T04:09:03.160Z,1.97
2022-10-09T04:11:32.755Z,1.23
2022-10-09T04:14:01.305Z,1.63
2022-10-09T04:16:29.548Z,1.27
2022-10-09T04:18:57.722Z,1.20
2022-10-09T04:21:26.022Z,1.47
2022-10-09T04:23:54.186Z,0.70
2022-10-09T04:26:22.578Z,0.67
2022-10-09T04:28:52.284Z,1.00
2022-10-09T04:31:20.526Z,0.53
2022-10-09T04:33:48.883Z,0.60
2022-10-09T04:36:17.227Z,0.60
2022-10-09T04:38:45.748Z,0.40
2022-10-09T04:41:14.584Z,0.40
2022-10-09T04:43:42.745Z,0.50
2022-10-09T04:46:15.230Z,0.40
2022-10-09T04:48:46.164Z,0.60
2022-10-09T04:51:16.170Z,0.63
2022-10-09T04:53:46.191Z,1.77
2022-10-09T04:56:16.940Z,0.90
2022-10-09T04:58:47.009Z,2.00
2022-10-09T05:01:20.036Z,1.73
2022-10-09T05:03:48.788Z,0.50
2022-10-09T05:06:18.463Z,0.50
2022-10-09T05:08:47.463Z,0.83
2022-10-09T05:11:18.696Z,0.97
2022-10-09T05:13:50.006Z,1.00
2022-10-09T05:16:23.167Z,0.70
2022-10-09T05:18:54.079Z,1.30
2022-10-09T05:21:23.409Z,1.60
2022-10-09T05:23:51.799Z,1.20
2022-10-09T05:26:22.965Z,1.00
2022-10-09T05:28:51.934Z,2.13
2022-10-09T05:31:26.796Z,1.07
2022-10-09T05:33:56.211Z,1.33
2022-10-09T05:36:24.520Z,2.67
2022-10-09T05:38:53.121Z,2.20
2022-10-09T05:41:21.854Z,1.50
2022-10-09T05:43:51.288Z,1.70
2022-10-09T05:46:24.204Z,1.63
2022-10-09T05:48:54.992Z,1.87
2022-10-09T05:51:25.394Z,2.67
2022-10-09T05:53:53.998Z,1.63
2022-10-09T05:56:25.280Z,1.30
2022-10-09T05:58:55.505Z,1.03
2022-10-09T06:01:27.820Z,1.20
2022-10-09T06:03:58.469Z,0.90
2022-10-09T06:06:30.275Z,0.90
2022-10-09T06:08:59.994Z,0.50
2022-10-09T06:11:31.744Z,0.60
2022-10-09T06:14:01.893Z,0.93
2022-10-09T06:16:34.813Z,0.80
2022-10-09T06:19:04.506Z,0.70
2022-10-09T06:21:33.645Z,1.03
2022-10-09T06:24:05.045Z,0.90
2022-10-09T06:26:33.580Z,1.47
2022-10-09T06:29:03.705Z,1.00
2022-10-09T06:31:34.528Z,1.10
2022-10-09T06:34:04.828Z,1.33
2022-10-09T06:36:35.823Z,1.70
2022-10-09T06:39:07.820Z,2.50
2022-10-09T06:41:36.307Z,1.50
2022-10-09T06:44:11.744Z,1.23
2022-10-09T06:46:44.838Z,1.90
2022-10-09T06:49:13.951Z,2.27
2022-10-09T06:51:42.163Z,1.70
2022-10-09T06:54:14.417Z,2.10
2022-10-09T06:56:42.687Z,2.40
2022-10-09T06:59:12.624Z,1.47
2022-10-09T07:01:41.384Z,2.53
2022-10-09T07:04:14.411Z,2.23
2022-10-09T07:06:45.992Z,2.63
2022-10-09T07:09:16.335Z,2.07
2022-10-09T07:11:46.796Z,2.40
2022-10-09T07:14:16.892Z,2.80
2022-10-09T07:16:48.416Z,2.80
2022-10-09T07:19:22.505Z,2.07
2022-10-09T07:21:53.113Z,2.37
2022-10-09T07:24:24.500Z,2.37
2022-10-09T07:26:55.401Z,2.20
2022-10-09T07:29:23.705Z,3.10
2022-10-09T07:31:51.902Z,2.93
2022-10-09T07:34:21.539Z,2.80
2022-10-09T07:36:49.915Z,3.47
2022-10-09T07:39:20.059Z,4.10
2022-10-09T07:41:51.563Z,2.43
2022-10-09T07:44:23.238Z,3.60
2022-10-09T07:46:51.568Z,2.83
2022-10-09T07:49:21.584Z,2.60
2022-10-09T07:51:49.943Z,4.30
2022-10-09T07:54:18.516Z,2.87
2022-10-09T07:56:46.723Z,3.87
2022-10-09T07:59:16.938Z,3.37
2022-10-09T08:01:45.569Z,3.97
2022-10-09T08:04:16.654Z,4.13
2022-10-09T08:06:46.255Z,3.10
2022-10-09T08:09:14.444Z,3.47
2022-10-09T08:11:42.648Z,4.33
2022-10-09T08:14:18.246Z,3.70
2022-10-09T08:16:47.484Z,3.00
2022-10-09T08:19:15.993Z,2.87
2022-10-09T08:21:45.626Z,3.40
2022-10-09T08:24:14.068Z,3.63
2022-10-09T08:26:42.848Z,2.70
2022-10-09T08:29:13.846Z,5.27
2022-10-09T08:31:42.330Z,3.43
2022-10-09T08:34:12.015Z,3.90
2022-10-09T08:36:40.430Z,4.60
2022-10-09T08:39:10.055Z,2.90
2022-10-09T08:41:45.669Z,3.07
2022-10-09T08:44:19.756Z,2.93
2022-10-09T08:46:59.260Z,3.43
2022-10-09T08:49:37.929Z,3.13
2022-10-09T08:52:25.444Z,3.17
2022-10-09T08:54:59.272Z,2.50
2022-10-09T08:57:32.635Z,3.40
2022-10-09T09:00:00.931Z,3.17
2022-10-09T09:02:49.141Z,2.70
2022-10-09T09:05:34.378Z,3.57
2022-10-09T09:08:13.156Z,2.70
2022-10-09T09:10:49.763Z,2.70
2022-10-09T09:13:48.879Z,3.17
2022-10-09T09:16:29.240Z,3.33
2022-10-09T09:19:22.053Z,3.40
2022-10-09T09:21:52.277Z,3.37
2022-10-09T09:24:22.919Z,2.10
2022-10-09T09:26:57.098Z,3.33
2022-10-09T09:29:27.588Z,3.83
2022-10-09T09:32:00.713Z,3.80
2022-10-09T09:34:38.680Z,2.88
2022-10-09T09:37:07.065Z,4.50
2022-10-09T09:42:25.913Z,2.72
2022-10-09T09:45:00.859Z,4.97
2022-10-09T09:47:39.699Z,2.63
2022-10-09T09:50:23.462Z,2.95
2022-10-09T09:52:58.299Z,3.28
2022-10-09T09:55:29.164Z,3.40
2022-10-09T09:58:06.796Z,2.95
2022-10-09T10:00:36.403Z,2.97
2022-10-09T10:03:13.355Z,3.47
2022-10-09T10:05:43.196Z,2.35
2022-10-09T10:08:17.271Z,3.15
2022-10-09T10:10:49.750Z,3.13
2022-10-09T10:13:22.682Z,1.85
2022-10-09T10:15:54.799Z,3.67
2022-10-09T10:18:25.817Z,3.83
2022-10-09T10:20:56.234Z,3.20
2022-10-09T10:23:33.196Z,3.90
2022-10-09T10:26:08.536Z,3.25
2022-10-09T10:28:54.155Z,3.17
2022-10-09T10:31:37.525Z,3.00
2022-10-09T10:34:11.441Z,3.70
2022-10-09T10:36:39.681Z,3.20
2022-10-09T10:39:22.090Z,3.88
2022-10-09T10:41:54.287Z,3.00
2022-10-09T10:44:37.962Z,3.85
2022-10-09T10:47:15.850Z,2.97
2022-10-09T10:49:44.167Z,4.07
2022-10-09T10:52:28.134Z,5.18
2022-10-09T10:55:14.562Z,4.30
2022-10-09T10:57:55.601Z,4.47
2022-10-09T11:00:27.380Z,2.88
2022-10-09T11:03:18.684Z,3.67
2022-10-09T11:05:52.801Z,3.13
2022-10-09T11:08:55.765Z,2.67
2022-10-09T11:11:29.206Z,3.63
2022-10-09T11:14:09.783Z,3.67
2022-10-09T11:16:52.682Z,2.65
2022-10-09T11:20:17.822Z,3.55
2022-10-09T11:23:07.219Z,3.13
2022-10-09T11:25:42.026Z,2.35
2022-10-09T11:28:16.918Z,3.20
2022-10-09T11:30:49.657Z,3.75
2022-10-09T11:33:31.712Z,2.95
2022-10-09T11:36:06.550Z,2.25
2022-10-09T11:38:39.400Z,2.33
2022-10-09T11:41:08.789Z,4.18
2022-10-09T11:43:56.612Z,3.17
2022-10-09T11:46:39.768Z,2.60
2022-10-09T11:49:22.318Z,2.38
2022-10-09T11:51:58.192Z,4.35
2022-10-09T11:54:28.687Z,2.17
2022-10-09T11:57:00.382Z,2.40
2022-10-09T11:59:32.173Z,2.63
2022-10-09T12:02:20.274Z,3.80
2022-10-09T12:04:54.920Z,2.75
2022-10-09T12:07:33.767Z,2.90
2022-10-09T12:10:09.387Z,3.47
2022-10-09T12:12:38.860Z,3.20
2022-10-09T12:15:25.868Z,2.72
2022-10-09T12:17:54.274Z,1.92
2022-10-09T12:20:26.567Z,3.05
2022-10-09T12:23:24.717Z,2.78
2022-10-09T12:25:48.781Z,1.77
2022-10-09T12:28:26.949Z,2.25
2022-10-09T12:30:57.074Z,2.33
2022-10-09T12:33:31.763Z,3.60
2022-10-09T12:36:07.395Z,2.28
2022-10-09T12:38:35.576Z,2.78
2022-10-09T12:41:07.553Z,2.30
2022-10-09T12:43:36.447Z,1.60
2022-10-09T12:46:05.604Z,3.28
2022-10-09T12:48:41.080Z,2.90
2022-10-09T12:51:21.226Z,2.45
2022-10-09T12:53:51.923Z,2.08
2022-10-09T12:56:25.418Z,2.00
2022-10-09T12:58:54.241Z,1.63
2022-10-09T13:01:23.791Z,3.08
2022-10-09T13:03:57.553Z,1.77
2022-10-09T13:06:31.567Z,1.60
2022-10-09T13:09:04.193Z,2.50
2022-10-09T13:11:38.026Z,2.85
2022-10-09T13:14:06.844Z,3.28
2022-10-09T13:16:47.621Z,3.15
2022-10-09T13:19:26.830Z,1.70
2022-10-09T13:22:08.973Z,2.95
2022-10-09T13:24:37.629Z,3.20
2022-10-09T13:27:07.019Z,2.28
2022-10-09T13:29:35.252Z,2.67
2022-10-09T13:32:03.698Z,2.90
2022-10-09T13:34:32.009Z,2.70
2022-10-09T13:37:00.328Z,3.60
2022-10-09T13:39:30.975Z,4.72
2022-10-09T13:42:00.778Z,2.58
2022-10-09T13:44:29.011Z,2.13
2022-10-09T13:46:57.246Z,2.60
2022-10-09T13:49:25.564Z,3.30
2022-10-09T13:51:53.886Z,1.98
2022-10-09T13:54:22.085Z,1.77
2022-10-09T13:56:51.681Z,2.30
2022-10-09T13:59:20.106Z,5.47
2022-10-09T14:01:48.366Z,2.55
2022-10-09T14:04:16.605Z,2.15
2022-10-09T14:06:46.989Z,2.80
2022-10-09T14:09:15.330Z,1.70
2022-10-09T14:11:43.965Z,3.35
2022-10-09T14:14:13.607Z,2.65
2022-10-09T14:16:44.922Z,2.03
2022-10-09T14:19:13.103Z,2.03
2022-10-09T14:21:41.322Z,2.40
2022-10-09T14:24:10.023Z,2.90
2022-10-09T14:26:53.200Z,1.65
2022-10-09T14:29:22.832Z,3.10
2022-10-09T14:31:52.017Z,2.75
2022-10-09T14:34:20.337Z,2.17
2022-10-09T14:36:48.831Z,2.88
2022-10-09T14:39:17.401Z,2.03
2022-10-09T14:41:45.812Z,2.87
2022-10-09T14:44:14.183Z,1.73
2022-10-09T14:46:43.754Z,1.63
2022-10-09T14:49:12.454Z,4.43
2022-10-09T14:51:42.066Z,1.85
2022-10-09T14:54:12.516Z,2.42
2022-10-09T14:56:41.507Z,2.63
2022-10-09T14:59:09.708Z,1.52
2022-10-09T15:01:38.149Z,2.33
2022-10-09T15:04:07.791Z,1.35
2022-10-09T15:06:36.320Z,3.70
2022-10-09T15:09:06.200Z,1.80
2022-10-09T15:11:36.371Z,1.67
2022-10-09T15:14:05.475Z,1.40
2022-10-09T15:16:33.816Z,1.60
2022-10-09T15:19:02.557Z,2.03
2022-10-09T15:21:35.127Z,1.47
2022-10-09T15:24:05.256Z,3.20
2022-10-09T15:26:36.693Z,1.70
2022-10-09T15:29:07.181Z,1.70
2022-10-09T15:31:39.209Z,1.93
2022-10-09T15:34:08.571Z,1.13
2022-10-09T15:36:43.058Z,1.98
2022-10-09T15:39:11.632Z,2.60
2022-10-09T15:41:43.197Z,2.10
2022-10-09T15:44:17.268Z,1.15
2022-10-09T15:46:47.398Z,1.70
2022-10-09T15:49:16.122Z,2.75
2022-10-09T15:51:48.350Z,1.40
2022-10-09T15:54:16.746Z,2.17
2022-10-09T15:56:45.018Z,1.48
2022-10-09T15:59:14.367Z,1.23
2022-10-09T16:01:42.647Z,1.77
2022-10-09T16:04:11.293Z,2.05
2022-10-09T16:06:39.830Z,3.15
2022-10-09T16:09:09.586Z,1.33
2022-10-09T16:11:37.884Z,1.10
2022-10-09T16:14:06.150Z,2.00
2022-10-09T16:16:34.418Z,1.80
2022-10-09T16:19:04.079Z,1.07
2022-10-09T16:21:32.758Z,1.40
2022-10-09T16:24:01.787Z,1.77
2022-10-09T16:26:31.634Z,1.77
2022-10-09T16:29:01.657Z,1.30
2022-10-09T16:31:34.719Z,2.23
2022-10-09T16:34:04.068Z,1.63
2022-10-09T16:36:32.431Z,1.90
2022-10-09T16:39:00.857Z,2.90
2022-10-09T16:41:30.438Z,1.80
2022-10-09T16:44:00.194Z,2.13
2022-10-09T16:46:31.510Z,1.43
2022-10-09T16:49:01.349Z,1.67
2022-10-09T16:51:32.385Z,2.80
2022-10-09T16:54:04.069Z,1.70
2022-10-09T16:56:37.235Z,1.90
2022-10-09T16:59:08.464Z,0.83
2022-10-09T17:01:37.985Z,2.27
2022-10-09T17:04:06.603Z,2.30
2022-10-09T17:06:34.857Z,1.43
2022-10-09T17:09:03.575Z,1.20
2022-10-09T17:11:33.291Z,1.43
2022-10-09T17:14:01.530Z,0.93
2022-10-09T17:16:32.677Z,1.17
2022-10-09T17:19:02.106Z,2.03
2022-10-09T17:21:34.424Z,1.80
2022-10-09T17:24:05.349Z,1.37
2022-10-09T17:26:35.991Z,1.27
2022-10-09T17:29:05.306Z,1.70
2022-10-09T17:31:34.228Z,1.20
2022-10-09T17:34:04.109Z,1.70
2022-10-09T17:36:35.696Z,1.37
2022-10-09T17:39:05.547Z,1.10
2022-10-09T17:41:35.412Z,1.40
2022-10-09T17:44:04.254Z,3.87
2022-10-09T17:46:33.223Z,1.97
2022-10-09T17:49:01.744Z,2.47
2022-10-09T17:51:32.903Z,3.30
2022-10-09T17:54:05.926Z,1.30
2022-10-09T17:56:38.144Z,1.37
2022-10-09T17:59:06.560Z,2.20
2022-10-09T18:01:35.170Z,1.53
2022-10-09T18:04:03.908Z,1.40
2022-10-09T18:06:34.562Z,1.97
2022-10-09T18:09:04.443Z,2.27
2022-10-09T18:11:33.269Z,1.20
2022-10-09T18:14:03.816Z,1.90
2022-10-09T18:16:37.843Z,2.00
2022-10-09T18:19:11.298Z,1.70
2022-10-09T18:21:41.746Z,1.80
2022-10-09T18:24:10.531Z,2.60
2022-10-09T18:26:38.812Z,0.87
2022-10-09T18:29:08.540Z,2.93
2022-10-09T18:31:37.791Z,1.33
2022-10-09T18:34:06.143Z,2.43
2022-10-09T18:36:35.873Z,1.67
2022-10-09T18:39:07.385Z,2.47
2022-10-09T18:41:36.532Z,0.97
2022-10-09T18:44:09.711Z,1.37
2022-10-09T18:46:45.592Z,1.60
2022-10-09T18:49:17.680Z,1.20
2022-10-09T18:51:48.228Z,1.83
2022-10-09T18:54:18.572Z,1.73
2022-10-09T18:56:47.077Z,1.23
2022-10-09T18:59:23.456Z,1.63
2022-10-09T19:01:51.623Z,0.97
2022-10-09T19:04:19.878Z,1.73
2022-10-09T19:06:48.252Z,2.03
2022-10-09T19:09:17.130Z,2.87
2022-10-09T19:11:45.305Z,3.13
2022-10-09T19:14:13.713Z,1.33
2022-10-09T19:16:43.985Z,4.33
2022-10-09T19:19:12.634Z,1.30
2022-10-09T19:21:43.814Z,4.20
2022-10-09T19:24:13.820Z,2.63
2022-10-09T19:26:42.456Z,2.00
2022-10-09T19:29:11.003Z,2.17
2022-10-09T19:31:39.432Z,2.10
2022-10-09T19:34:09.253Z,2.20
2022-10-09T19:36:38.953Z,3.50
2022-10-09T19:39:09.143Z,3.10
2022-10-09T19:41:37.930Z,1.73
2022-10-09T19:44:06.646Z,3.13
2022-10-09T19:46:38.413Z,2.27
2022-10-09T19:49:08.974Z,2.57
2022-10-09T19:51:38.334Z,2.33
2022-10-09T19:54:08.728Z,1.87
2022-10-09T19:56:38.812Z,3.50
2022-10-09T19:59:09.420Z,2.80
2022-10-09T20:01:40.358Z,2.33
2022-10-09T20:04:12.089Z,2.30
2022-10-09T20:06:42.827Z,1.67
2022-10-09T20:09:13.593Z,2.40
2022-10-09T20:11:42.582Z,1.60
2022-10-09T20:14:11.329Z,1.10
2022-10-09T20:16:39.746Z,1.70
2022-10-09T20:19:09.424Z,2.07
2022-10-09T20:21:37.883Z,2.17
2022-10-09T20:24:07.087Z,2.63
2022-10-09T20:26:37.714Z,1.87
2022-10-09T20:29:09.165Z,2.37
2022-10-09T20:31:37.493Z,2.73
2022-10-09T20:34:05.720Z,1.67
2022-10-09T20:36:37.604Z,2.20
2022-10-09T20:39:09.166Z,1.37
2022-10-09T20:41:37.866Z,1.93
2022-10-09T20:44:06.787Z,3.23
2022-10-09T20:46:37.977Z,2.17
2022-10-09T20:49:08.912Z,1.40
2022-10-09T20:51:39.754Z,1.57
2022-10-09T20:54:10.011Z,2.40
2022-10-09T20:56:38.200Z,2.47
2022-10-09T20:59:06.379Z,2.13
2022-10-09T21:01:36.846Z,1.47
2022-10-09T21:04:05.655Z,2.00
2022-10-09T21:06:35.781Z,1.37
2022-10-09T21:09:06.023Z,1.10
2022-10-09T21:11:34.967Z,1.10
2022-10-09T21:14:04.383Z,1.33
2022-10-09T21:16:34.263Z,3.77
2022-10-09T21:19:05.985Z,1.93
2022-10-09T21:21:34.340Z,2.50
2022-10-09T21:24:04.512Z,0.80
2022-10-09T21:26:35.908Z,2.63
2022-10-09T21:29:05.411Z,1.73
2022-10-09T21:31:34.646Z,1.43
2022-10-09T21:34:03.150Z,1.67
2022-10-09T21:37:02.219Z,1.93
2022-10-09T21:39:32.868Z,1.67
2022-10-09T21:42:01.028Z,1.90
2022-10-09T21:44:30.043Z,2.23
2022-10-09T21:46:58.247Z,1.67
2022-10-09T21:49:28.730Z,1.47
2022-10-09T21:51:57.843Z,1.37
2022-10-09T21:54:26.083Z,1.47
2022-10-09T21:56:55.611Z,2.53
2022-10-09T21:59:23.756Z,1.50
2022-10-09T22:01:52.018Z,2.10
2022-10-09T22:04:20.405Z,1.93
2022-10-09T22:06:48.684Z,1.70
2022-10-09T22:09:16.924Z,1.37
2022-10-09T22:11:45.477Z,1.40
2022-10-09T22:14:16.176Z,2.67
2022-10-09T22:16:44.959Z,1.93
2022-10-09T22:19:13.539Z,3.43
2022-10-09T22:21:41.917Z,3.20
2022-10-09T22:24:10.709Z,1.43
2022-10-09T22:26:40.124Z,2.70
2022-10-09T22:29:08.821Z,1.80
2022-10-09T22:31:39.017Z,1.00
2022-10-09T22:34:07.926Z,1.70
2022-10-09T22:36:36.792Z,2.63
2022-10-09T22:39:07.936Z,2.13
2022-10-09T22:41:37.491Z,1.50
2022-10-09T22:44:08.334Z,1.97
2022-10-09T22:46:41.595Z,2.67
2022-10-09T22:49:13.576Z,1.87
2022-10-09T22:51:42.362Z,1.60
2022-10-09T22:54:12.209Z,1.27
2022-10-09T22:56:43.511Z,2.03
2022-10-09T22:59:14.713Z,1.83
2022-10-09T23:01:49.254Z,1.57
2022-10-09T23:04:19.307Z,1.57
2022-10-09T23:06:51.262Z,1.30
2022-10-09T23:09:20.507Z,1.10
2022-10-09T23:11:49.040Z,1.57
2022-10-09T23:14:17.492Z,1.27
2022-10-09T23:16:47.185Z,1.03
2022-10-09T23:19:15.584Z,1.47
2022-10-09T23:21:45.568Z,1.77
2022-10-09T23:24:17.610Z,1.27
2022-10-09T23:26:47.424Z,1.17
2022-10-09T23:29:18.299Z,2.13
2022-10-09T23:31:48.534Z,1.70
2022-10-09T23:34:17.383Z,1.73
2022-10-09T23:36:45.674Z,1.17
2022-10-09T23:39:14.577Z,1.60
2022-10-09T23:41:42.865Z,1.83
2022-10-09T23:44:11.173Z,1.30
2022-10-09T23:46:39.900Z,1.40
2022-10-09T23:49:09.527Z,1.83
2022-10-09T23:51:37.992Z,2.47
2022-10-09T23:54:07.199Z,1.40
2022-10-09T23:56:39.165Z,2.07
2022-10-09T23:59:07.803Z,1.50
